Detall de PIREP

Printer-friendly versionPDF version

[2010/10/16 15:44:00]
Flight IATA:CT0001
Pilot Number:042
Company ICAO:CAT
Aircraft Type:F70/A
PAX:3
Aircraft Registration:DA
Departing Airport: LEBL
Destination Airport: LEIB
Alternate Airport:LEPA
Online: VATSIM
Route:LARPA B31 TOLSO
Flight Level:FL160
No Slew and time accel
No pause
Crash detect
Detect pilot in Cockpit between each 30 and 45 minutes
15:44 Zero fuel Weight: 70857 Lbs, Fuel Weight: 23646 Lbs
15:44 VATSIM:LEBL 161530Z 11003KT 070V160 9999 FEW020 17/09 Q1010 NOSIG
15:44 VATSIM:LEIB 161530Z 22007KT 170V260 9999 FEW040 21/13 Q1010 NOSIG
15:45 VOICE CATALONIAN
00:34 UTC Jump: added 1 Hour to Log
16:06 UTC Jump: removed 1 Hour from Log
16:11 Parking Brakes off
16:18 Take-off
16:18 Take off Weight: 93892 Lbs
16:18 Wind: 112 @ 003 Knots Heading: 245
16:18 POS N41 17 03 E002 04 48
16:18 Gear Up: 170 Knots
16:18 Flaps:2 at 170 Knots
16:18 Flaps:1 at 171 Knots
16:19 Flaps:0 at 155 Knots
16:29 TOC
16:29 Fuel Weight: 21694 Lb
16:33 Wind:298@013 Knots Heading: 166 Ground Speed: 393 Knots Altitude 16013 ft
16:40 TOD
16:40 Fuel Weight: 20574 Lb
16:48 Wind:312@005 Knots Heading: 238 Ground Speed: 213 Knots Altitude 5006 ft
16:49 Flaps:1 at 199 Knots
16:51 Flaps:2 at 176 Knots
16:51 Gear Down: 166 Knots
16:53 Flaps:3 at 159 Knots
16:53 Flaps:4 at 156 Knots
16:56 TouchDown:Rate -111 ft/min Speed: 141 Knots
16:56 VATSIM:LEIB 161630Z 23004KT 200V260 9999 FEW040 21/14 Q1010 NOSIG
16:56 Land
16:56 Wind:210@006 Knots
16:56 Heading: 244
16:56 Flight Duration: 00:38
16:56 Landing Weight: 90576 Lbs
16:56 POS N38 52 23 E001 22 26
16:58 Parking brakes on
16:58 Block to Block Duration: 00:47
16:58 Final Fuel: 19640 Lbls
16:58 Spent Fuel: 4005 Lbls
16:58 Flight Length: 102 NM
16:58 TOD Land Length: 60 NM

Exportar CSV

Powered by Drupal - Modified by Danger4k